Flight Track Log - Related Links

Times and Time Zones

All times are in EST time to prevent confusion due to time zone crossing. See the N400PU flight status page for this flight to view local times or setup timezone preferences in your user account.

Time Position Orientation Groundspeed Altitude Reporting Facility
EST Latitude Longitude Course Direction KTS MPH feet Rate Location/Type
Sun 16:42:18 39.5206 -84.4108 240° Southwest 150 173 1,800  Level Indianapolis Center
Sun 16:42:48 39.5103 -84.4336 240° Southwest 154 177 2,900 866 Climbing Indianapolis Center
Sun 16:43:55 39.5442 -84.5061 301° West 220 253 3,200 424 Climbing Indianapolis Center
Sun 16:44:13 39.5500 -84.5167 306° West 225 259 3,500 1,800 Climbing Indianapolis Center
Sun 16:44:55 39.5811 -84.5678 308° West 219 252 5,000 1,645 Climbing Indianapolis Center
Sun 16:45:15 39.5892 -84.5789 313° West 223 257 5,200 1,704 Climbing Indianapolis Center
Sun 16:46:16 39.6325 -84.6442 311° West 230 265 7,300 2,195 Climbing Indianapolis Center
Sun 16:47:18 39.6850 -84.7269 310° West 247 284 9,700 1,306 Climbing Indianapolis Center
Sun 16:48:20 39.7361 -84.8086 309° West 286 329 10,000 1,161 Climbing Indianapolis Center
Sun 16:49:22 39.7761 -84.9014 299° West 301 346 12,100 976 Climbing Indianapolis Center
Sun 16:50:23 39.8114 -85.0133 292° West 332 382 12,000 -49 Descending Indianapolis Center
Sun 16:51:25 39.8500 -85.1294 293° West 347 399 12,000  Level Indianapolis Center
Sun 16:52:27 39.8867 -85.2444 293° West 344 396 12,000  Level Indianapolis Center
Sun 16:53:29 39.9242 -85.3603 293° West 345 397 12,000  Level Indianapolis Center
Sun 16:54:30 39.9661 -85.4933 292° West 341 392 12,000  Level Indianapolis Center
Sun 16:55:32 40.0022 -85.6078 292° West 340 391 12,000 -339 Level Indianapolis Center
Sun 16:56:34 40.0386 -85.7219 293° West 340 391 11,300 -1,024 Descending Indianapolis Center
Sun 16:57:35 40.0733 -85.8336 292° West 333 383 9,900 -634 Descending Indianapolis Center
Sun 16:58:37 40.1025 -85.9292 292° West 292 336 10,000 48 Climbing Indianapolis Center
Sun 16:59:39 40.1292 -86.0244 290° West 281 323 10,000  Level Indianapolis Center
Sun 17:00:41 40.1528 -86.1197 288° West 277 319 10,000 -146 Level Indianapolis Center
Sun 17:01:42 40.1769 -86.2139 289° West 274 315 9,700 -732 Descending Indianapolis Center
Sun 17:02:44 40.2036 -86.3161 289° West 262 302 8,500 -1,306 Descending Indianapolis Center
Sun 17:03:46 40.2242 -86.4008 288° West 249 287 7,000 -1,220 Descending Indianapolis Center
Sun 17:04:47 40.2453 -86.4853 288° West 247 284 6,000 -927 Descending Indianapolis Center
Sun 17:05:49 40.2639 -86.5625 288° West 234 269 5,100 -1,065 Descending Indianapolis Center
Sun 17:06:51 40.2853 -86.6456 289° West 234 269 3,800 -1,024 Descending Indianapolis Center
Sun 17:07:52 40.3275 -86.6972 317° Northwest 227 261 3,000 -585 Descending Indianapolis Center
Sun 17:08:54 40.3786 -86.6989 359° North 196 226 2,600 -194 Descending Indianapolis Center
Sun 17:09:56 40.3906 -86.7561 285° West 172 198 2,600 -97 Level Indianapolis Center
Sun 17:10:58 40.3975 -86.8100 280° West 138 159 2,400 -146 Descending Indianapolis Center
Sun 17:11:59 40.4053 -86.8494 285° West 134 154 2,300 -98 Descending Indianapolis Center

Login

Don't have an account? Register now (free) for customized features, flight alerts, and more!